Stations météo

Publicité
Metz-Frescaty, France (7090): Température de l'air & dewpoint: 04.12.2018 16:00:00 - 10.12.2018 16:00:00 (CET)Metz-Frescaty, France (7090): Vitesse du vent & gusts: 04.12.2018 16:00:00 - 10.12.2018 16:00:00 (CET)Metz-Frescaty, France (7090): Direction du vent: 04.12.2018 16:00:00 - 10.12.2018 16:00:00 (CET)Metz-Frescaty, France (7090): Quantités de précipitations: 04.12.2018 16:00:00 - 10.12.2018 16:00:00 (CET)
Date & Time tt [°C] td [°C] ff [km/h] ff [knt] fx [km/h] fx [knt] dd rr [mm]
10.12.2018 16:00:00 - - - - - - - -
10.12.2018 15:00:00 7,1 2,6 16 9 34 18 W 0,0
10.12.2018 14:00:00 7,6 3,3 13 7 29 16 W 0,0
10.12.2018 13:00:00 6,8 3,4 16 9 29 16 W -
10.12.2018 12:00:00 6,6 4,6 13 7 31 17 W 0,8
10.12.2018 11:00:00 6,4 3,9 16 9 34 18 W 0,2
10.12.2018 10:00:00 6,1 3,4 9 5 26 14 W 0,0
10.12.2018 09:00:00 5,7 3,2 15 8 22 12 W 0,0
10.12.2018 08:00:00 5,4 3,1 11 6 24 13 W 0,0
10.12.2018 07:00:00 5,1 2,8 9 5 34 18 W -
10.12.2018 06:00:00 5,3 2,6 16 9 28 15 W 0,0
10.12.2018 05:00:00 5,4 2,7 15 8 29 16 W 0,0
10.12.2018 04:00:00 5,8 3,1 11 6 34 18 W 0,0
10.12.2018 03:00:00 5,9 2,9 15 8 28 15 W 0,0
10.12.2018 02:00:00 6,0 3,2 15 8 29 16 W 0,0
10.12.2018 01:00:00 5,5 3,2 13 7 29 16 W -
10.12.2018 00:00:00 5,7 3,2 15 8 31 17 W 0,0
09.12.2018 23:00:00 5,9 2,9 16 9 35 19 W 0,0
09.12.2018 22:00:00 6,3 3,3 18 10 42 23 W 0,0
09.12.2018 21:00:00 6,6 3,7 18 10 37 20 W 0,0
09.12.2018 20:00:00 7,1 4,4 16 9 37 20 W 0,0
09.12.2018 19:00:00 7,6 5,1 16 9 37 20 W -
09.12.2018 18:00:00 7,6 5,2 21 11 39 21 W 0,0
09.12.2018 17:00:00 7,0 4,5 16 9 29 16 W 0,0
09.12.2018 16:00:00 7,6 5,2 18 10 48 26 W 3,0
09.12.2018 15:00:00 8,2 6,2 24 13 55 30 W 2,0
09.12.2018 14:00:00 8,1 6,1 22 12 52 28 W 2,0
09.12.2018 13:00:00 7,8 5,6 29 16 55 30 WSW -
09.12.2018 12:00:00 8,1 5,2 29 16 61 33 WSW 0,6
09.12.2018 11:00:00 8,1 4,9 31 17 74 40 WSW 0,2
09.12.2018 10:00:00 8,2 4,8 29 16 63 34 WSW 0,8
09.12.2018 09:00:00 7,7 4,8 24 13 67 36 WSW 0,6
09.12.2018 08:00:00 8,1 4,1 34 18 63 34 WSW 0,2
09.12.2018 07:00:00 7,7 4,1 34 18 61 33 W -
09.12.2018 06:00:00 7,1 4,4 22 12 65 35 W 0,8
09.12.2018 05:00:00 9,0 4,4 34 18 61 33 WSW 0,0
09.12.2018 04:00:00 9,3 5,5 28 15 59 32 WSW 0,0
09.12.2018 03:00:00 8,8 5,0 28 15 52 28 W 0,4
09.12.2018 02:00:00 9,5 6,9 31 17 70 38 W 2,0
09.12.2018 01:00:00 10,8 6,3 28 15 67 36 WSW -
09.12.2018 00:00:00 11,0 6,5 35 19 67 36 WSW 0,0
08.12.2018 23:00:00 10,8 7,8 37 20 67 36 WSW 1,0
08.12.2018 22:00:00 9,9 8,0 26 14 55 30 SSW 0,4
08.12.2018 21:00:00 9,4 7,5 24 13 52 28 SSW 0,2
08.12.2018 20:00:00 8,8 7,1 24 13 50 27 SW 0,2
08.12.2018 19:00:00 8,7 6,7 24 13 50 27 SW -
08.12.2018 18:00:00 8,9 5,6 26 14 55 30 SW 0,0
08.12.2018 17:00:00 9,3 5,1 24 13 57 31 SW 0,0
08.12.2018 16:00:00 9,1 4,7 24 13 50 27 WSW 0,0
08.12.2018 15:00:00 8,1 5,7 21 11 46 25 SW 0,4
08.12.2018 14:00:00 8,6 4,8 24 13 54 29 WSW 0,2
08.12.2018 13:00:00 8,4 5,0 28 15 57 31 WSW -
08.12.2018 12:00:00 7,7 4,8 24 13 46 25 WSW 0,4
08.12.2018 11:00:00 7,6 4,4 28 15 50 27 WSW 0,0
08.12.2018 10:00:00 7,3 4,1 26 14 52 28 WSW 0,2
08.12.2018 09:00:00 6,9 4,0 22 12 54 29 SW 0,0
08.12.2018 08:00:00 6,8 3,4 24 13 48 26 SW 0,0
08.12.2018 07:00:00 6,6 3,4 16 9 39 21 SW -
08.12.2018 06:00:00 6,9 2,6 18 10 48 26 SW 0,0
08.12.2018 05:00:00 6,8 2,7 26 14 48 26 WSW 0,0
08.12.2018 04:00:00 6,7 2,6 28 15 52 28 WSW 0,0
08.12.2018 03:00:00 6,7 2,4 24 13 48 26 WSW 0,0
08.12.2018 02:00:00 6,8 3,0 18 10 44 24 WSW 0,0
08.12.2018 01:00:00 6,7 2,8 24 13 55 30 WSW -
08.12.2018 00:00:00 7,1 3,0 29 16 54 29 WSW 0,0
07.12.2018 23:00:00 7,3 3,3 26 14 52 28 W 0,0
07.12.2018 22:00:00 7,8 3,6 26 14 50 27 WSW 0,0
07.12.2018 21:00:00 7,9 4,5 24 13 48 26 WSW 0,2
07.12.2018 20:00:00 7,8 4,6 28 15 55 30 W 0,0
07.12.2018 19:00:00 8,7 5,1 26 14 80 43 W -
07.12.2018 18:00:00 9,8 7,9 22 12 46 25 SSW 2,0
07.12.2018 17:00:00 9,9 7,5 22 12 48 26 S 0,2
07.12.2018 16:00:00 10,6 6,7 21 11 48 26 S 0,2
07.12.2018 15:00:00 10,7 6,8 22 12 54 29 SSW 0,0
07.12.2018 14:00:00 11,4 6,5 22 12 46 25 SW 0,0
07.12.2018 13:00:00 11,0 6,9 22 12 42 23 SW -
07.12.2018 12:00:00 10,8 7,3 22 12 44 24 SW 0,0
07.12.2018 11:00:00 10,7 7,2 18 10 46 25 SW 0,0
07.12.2018 10:00:00 10,8 7,3 21 11 42 23 SSW 0,0
07.12.2018 09:00:00 10,7 7,4 16 9 31 17 S 0,0
07.12.2018 08:00:00 10,6 7,5 13 7 31 17 SSW 0,0
07.12.2018 07:00:00 10,6 7,8 15 8 35 19 SW -
07.12.2018 06:00:00 10,9 7,9 15 8 31 17 SSW 0,0
07.12.2018 05:00:00 11,0 8,4 11 6 26 14 SSW 0,0
07.12.2018 04:00:00 11,1 8,7 11 6 26 14 SW 0,0
07.12.2018 03:00:00 11,3 9,0 15 8 26 14 SW 0,0
07.12.2018 02:00:00 11,3 9,9 9 5 29 16 SW 0,0
07.12.2018 01:00:00 11,4 10,3 9 5 22 12 SW -
07.12.2018 00:00:00 11,4 10,5 9 5 24 13 SSW 0,0
06.12.2018 23:00:00 11,8 9,9 13 7 24 13 SW 0,0
06.12.2018 22:00:00 11,9 10,0 11 6 35 19 SW 0,0
06.12.2018 21:00:00 11,9 9,8 9 5 29 16 SW 0,0
06.12.2018 20:00:00 11,9 10,0 11 6 26 14 SSW 0,0
06.12.2018 19:00:00 11,9 10,1 9 5 21 11 SW -
06.12.2018 18:00:00 11,9 10,1 8 4 16 9 SW 0,0
06.12.2018 17:00:00 11,9 10,1 4 2 13 7 SW 0,0
06.12.2018 16:00:00 11,9 10,6 9 5 22 12 SSW 0,4
06.12.2018 15:00:00 12,8 10,0 8 4 21 11 SW 0,0
06.12.2018 14:00:00 12,7 9,7 8 4 16 9 SW 0,0
06.12.2018 13:00:00 12,5 9,7 11 6 22 12 SW -
06.12.2018 12:00:00 12,0 9,9 11 6 18 10 SW 0,0
06.12.2018 11:00:00 11,2 10,1 8 4 15 8 SSW 0,2
06.12.2018 10:00:00 11,0 9,3 5 3 15 8 SW 0,0
06.12.2018 09:00:00 10,8 9,4 8 4 18 10 SW 0,0
06.12.2018 08:00:00 10,9 9,3 11 6 24 13 WSW 0,2
06.12.2018 07:00:00 10,4 9,3 9 5 21 11 WSW -
06.12.2018 06:00:00 9,8 9,0 8 4 16 9 SW 0,2
06.12.2018 05:00:00 9,5 8,6 8 4 18 10 SW 0,0
06.12.2018 04:00:00 8,8 7,9 5 3 11 6 S 0,0
06.12.2018 03:00:00 7,7 6,9 5 3 9 5 SSE 0,6
06.12.2018 02:00:00 7,1 6,5 4 2 11 6 SSE 0,2
06.12.2018 01:00:00 6,9 6,5 5 3 11 6 S -
06.12.2018 00:00:00 6,6 6,2 4 2 9 5 SE 0,6
05.12.2018 23:00:00 6,4 6,0 5 3 13 7 S 0,6
05.12.2018 22:00:00 6,3 5,9 5 3 9 5 S 0,6
05.12.2018 21:00:00 6,2 5,6 4 2 11 6 SSE 0,0
05.12.2018 20:00:00 6,4 5,7 8 4 11 6 SE 0,0
05.12.2018 19:00:00 6,6 6,2 0 0 11 6 N -
05.12.2018 18:00:00 6,9 6,3 2 1 4 2 SSW 0,0
05.12.2018 17:00:00 7,3 6,6 4 2 5 3 S 0,0
05.12.2018 16:00:00 7,6 6,7 2 1 8 4 SSE 0,0
05.12.2018 15:00:00 7,4 6,7 4 2 8 4 S 0,0
05.12.2018 14:00:00 7,1 6,7 5 3 9 5 SE 0,0
05.12.2018 13:00:00 6,2 5,9 4 2 8 4 SSE -
05.12.2018 12:00:00 5,5 5,2 4 2 8 4 SSE 0,0
05.12.2018 11:00:00 4,8 4,4 4 2 9 5 E 0,0
05.12.2018 10:00:00 4,7 4,4 5 3 9 5 E 0,0
05.12.2018 09:00:00 4,7 4,6 5 3 8 4 ENE 0,0
05.12.2018 08:00:00 4,7 4,4 4 2 4 2 E 0,0
05.12.2018 07:00:00 4,3 4,0 2 1 4 2 N -
05.12.2018 06:00:00 4,1 3,7 0 0 5 3 N 0,0
05.12.2018 05:00:00 3,9 3,5 2 1 5 3 ENE 0,0
05.12.2018 04:00:00 3,4 3,1 4 2 5 3 NNE 0,0
05.12.2018 03:00:00 3,1 2,8 0 0 2 1 N 0,0
05.12.2018 02:00:00 3,2 2,9 0 0 8 4 N 0,0
05.12.2018 01:00:00 2,8 2,5 2 1 5 3 WNW -
05.12.2018 00:00:00 2,4 2,3 4 2 5 3 NNW 0,0
04.12.2018 23:00:00 1,1 0,8 0 0 4 2 N 0,0
04.12.2018 22:00:00 0,9 0,3 0 0 8 4 N 0,0
04.12.2018 21:00:00 1,7 1,4 4 2 8 4 WNW 0,0
04.12.2018 20:00:00 2,6 2,2 0 0 4 2 N 0,0
04.12.2018 19:00:00 3,2 2,8 4 2 5 3 WNW -
04.12.2018 18:00:00 4,8 3,9 4 2 5 3 WNW 0,0
04.12.2018 17:00:00 7,3 4,8 4 2 8 4 NNW 0,0
04.12.2018 16:00:00 9,0 5,0 4 2 9 5 WNW 0,0

tt = Température de l'air
td = dewpoint
ff = Vitesse du vent
fx = gusts
dd = Direction du vent
rr = Quantités de précipitations

stations d'obs. à proximité